sensor_id;sensor_type;location;lat;lon;timestamp;P1;durP1;ratioP1;P2;durP2;ratioP2
4812;SDS011;2420;51.202;8.698;2023-12-14T00:01:21;15.60;;;9.65;;
4812;SDS011;2420;51.202;8.698;2023-12-14T00:03:46;13.27;;;7.93;;
4812;SDS011;2420;51.202;8.698;2023-12-14T00:06:12;12.93;;;7.32;;
4812;SDS011;2420;51.202;8.698;2023-12-14T00:08:39;10.80;;;6.80;;
4812;SDS011;2420;51.202;8.698;2023-12-14T00:13:31;9.48;;;6.60;;
4812;SDS011;2420;51.202;8.698;2023-12-14T00:15:57;10.40;;;6.65;;
4812;SDS011;2420;51.202;8.698;2023-12-14T00:18:23;10.38;;;6.03;;
4812;SDS011;2420;51.202;8.698;2023-12-14T00:20:48;11.27;;;7.13;;
4812;SDS011;2420;51.202;8.698;2023-12-14T00:23:17;13.35;;;7.20;;
4812;SDS011;2420;51.202;8.698;2023-12-14T00:25:43;11.48;;;6.90;;
4812;SDS011;2420;51.202;8.698;2023-12-14T00:28:08;8.88;;;6.70;;
4812;SDS011;2420;51.202;8.698;2023-12-14T00:30:34;11.60;;;7.03;;
4812;SDS011;2420;51.202;8.698;2023-12-14T00:32:59;11.50;;;6.47;;
4812;SDS011;2420;51.202;8.698;2023-12-14T00:35:25;10.07;;;6.65;;
4812;SDS011;2420;51.202;8.698;2023-12-14T00:37:51;9.40;;;6.13;;
4812;SDS011;2420;51.202;8.698;2023-12-14T00:40:16;9.13;;;6.00;;
4812;SDS011;2420;51.202;8.698;2023-12-14T00:42:42;9.93;;;6.40;;
4812;SDS011;2420;51.202;8.698;2023-12-14T00:45:07;9.48;;;6.50;;
4812;SDS011;2420;51.202;8.698;2023-12-14T00:47:33;11.20;;;7.40;;
4812;SDS011;2420;51.202;8.698;2023-12-14T00:49:59;11.13;;;6.93;;
4812;SDS011;2420;51.202;8.698;2023-12-14T00:52:24;10.27;;;6.70;;
4812;SDS011;2420;51.202;8.698;2023-12-14T00:54:50;11.07;;;6.90;;
4812;SDS011;2420;51.202;8.698;2023-12-14T00:57:15;10.02;;;6.38;;
4812;SDS011;2420;51.202;8.698;2023-12-14T00:59:41;9.30;;;6.25;;
4812;SDS011;2420;51.202;8.698;2023-12-14T01:02:07;8.90;;;6.30;;
4812;SDS011;2420;51.202;8.698;2023-12-14T01:04:32;11.80;;;6.90;;
4812;SDS011;2420;51.202;8.698;2023-12-14T01:06:58;11.82;;;7.32;;
4812;SDS011;2420;51.202;8.698;2023-12-14T01:09:23;15.02;;;8.13;;
4812;SDS011;2420;51.202;8.698;2023-12-14T01:11:49;15.50;;;8.65;;
4812;SDS011;2420;51.202;8.698;2023-12-14T01:14:15;13.48;;;7.75;;
4812;SDS011;2420;51.202;8.698;2023-12-14T01:16:40;11.60;;;7.25;;
4812;SDS011;2420;51.202;8.698;2023-12-14T01:19:06;11.80;;;7.53;;
4812;SDS011;2420;51.202;8.698;2023-12-14T01:21:32;11.57;;;7.35;;
4812;SDS011;2420;51.202;8.698;2023-12-14T01:23:58;12.02;;;7.18;;
4812;SDS011;2420;51.202;8.698;2023-12-14T01:26:25;15.50;;;9.82;;
4812;SDS011;2420;51.202;8.698;2023-12-14T01:28:51;18.17;;;9.82;;
4812;SDS011;2420;51.202;8.698;2023-12-14T01:31:17;16.10;;;9.52;;
4812;SDS011;2420;51.202;8.698;2023-12-14T01:33:42;16.83;;;10.05;;
4812;SDS011;2420;51.202;8.698;2023-12-14T01:36:08;17.92;;;10.43;;
4812;SDS011;2420;51.202;8.698;2023-12-14T01:38:33;17.25;;;10.57;;
4812;SDS011;2420;51.202;8.698;2023-12-14T01:40:59;16.75;;;11.95;;
4812;SDS011;2420;51.202;8.698;2023-12-14T01:43:25;14.57;;;9.82;;
4812;SDS011;2420;51.202;8.698;2023-12-14T01:45:51;17.48;;;9.90;;
4812;SDS011;2420;51.202;8.698;2023-12-14T01:48:16;14.27;;;8.48;;
4812;SDS011;2420;51.202;8.698;2023-12-14T01:50:42;16.10;;;8.80;;
4812;SDS011;2420;51.202;8.698;2023-12-14T01:53:07;19.23;;;9.88;;
4812;SDS011;2420;51.202;8.698;2023-12-14T01:55:33;18.20;;;10.18;;
4812;SDS011;2420;51.202;8.698;2023-12-14T01:57:59;15.27;;;9.02;;
4812;SDS011;2420;51.202;8.698;2023-12-14T02:00:28;14.02;;;8.93;;
4812;SDS011;2420;51.202;8.698;2023-12-14T02:03:00;17.15;;;9.07;;
4812;SDS011;2420;51.202;8.698;2023-12-14T02:05:25;15.88;;;8.60;;
4812;SDS011;2420;51.202;8.698;2023-12-14T02:07:51;14.35;;;8.85;;
4812;SDS011;2420;51.202;8.698;2023-12-14T02:10:16;14.20;;;8.90;;
4812;SDS011;2420;51.202;8.698;2023-12-14T02:12:42;17.92;;;9.48;;
4812;SDS011;2420;51.202;8.698;2023-12-14T02:15:08;14.60;;;8.73;;
4812;SDS011;2420;51.202;8.698;2023-12-14T02:17:34;18.13;;;8.82;;
4812;SDS011;2420;51.202;8.698;2023-12-14T02:19:59;13.73;;;8.57;;
4812;SDS011;2420;51.202;8.698;2023-12-14T02:22:26;13.88;;;8.93;;
4812;SDS011;2420;51.202;8.698;2023-12-14T02:24:51;13.80;;;8.07;;
4812;SDS011;2420;51.202;8.698;2023-12-14T02:27:17;16.45;;;9.85;;
4812;SDS011;2420;51.202;8.698;2023-12-14T02:29:42;18.70;;;10.50;;
4812;SDS011;2420;51.202;8.698;2023-12-14T02:32:08;16.23;;;9.43;;
4812;SDS011;2420;51.202;8.698;2023-12-14T02:34:33;12.73;;;8.52;;
4812;SDS011;2420;51.202;8.698;2023-12-14T02:36:59;13.13;;;8.90;;
4812;SDS011;2420;51.202;8.698;2023-12-14T02:39:24;15.25;;;9.02;;
4812;SDS011;2420;51.202;8.698;2023-12-14T02:41:50;14.18;;;8.35;;
4812;SDS011;2420;51.202;8.698;2023-12-14T02:44:15;13.20;;;7.93;;
4812;SDS011;2420;51.202;8.698;2023-12-14T02:46:41;14.93;;;7.40;;
4812;SDS011;2420;51.202;8.698;2023-12-14T02:49:06;13.88;;;8.07;;
4812;SDS011;2420;51.202;8.698;2023-12-14T02:51:32;14.82;;;8.48;;
4812;SDS011;2420;51.202;8.698;2023-12-14T02:53:58;13.20;;;7.50;;
4812;SDS011;2420;51.202;8.698;2023-12-14T02:56:23;12.52;;;7.70;;
4812;SDS011;2420;51.202;8.698;2023-12-14T02:58:49;12.07;;;6.75;;
4812;SDS011;2420;51.202;8.698;2023-12-14T03:01:18;11.68;;;7.38;;
4812;SDS011;2420;51.202;8.698;2023-12-14T03:03:45;12.00;;;7.85;;
4812;SDS011;2420;51.202;8.698;2023-12-14T03:06:11;13.77;;;8.05;;
4812;SDS011;2420;51.202;8.698;2023-12-14T03:08:36;12.57;;;7.85;;
4812;SDS011;2420;51.202;8.698;2023-12-14T03:11:02;10.63;;;7.70;;
4812;SDS011;2420;51.202;8.698;2023-12-14T03:13:28;14.82;;;8.23;;
4812;SDS011;2420;51.202;8.698;2023-12-14T03:15:53;11.93;;;7.93;;
4812;SDS011;2420;51.202;8.698;2023-12-14T03:18:19;11.98;;;7.75;;
4812;SDS011;2420;51.202;8.698;2023-12-14T03:20:44;11.10;;;7.10;;
4812;SDS011;2420;51.202;8.698;2023-12-14T03:23:14;11.98;;;7.55;;
4812;SDS011;2420;51.202;8.698;2023-12-14T03:25:39;10.98;;;6.65;;
4812;SDS011;2420;51.202;8.698;2023-12-14T03:28:05;8.45;;;6.07;;
4812;SDS011;2420;51.202;8.698;2023-12-14T03:30:30;9.18;;;6.00;;
4812;SDS011;2420;51.202;8.698;2023-12-14T03:32:56;12.10;;;6.38;;
4812;SDS011;2420;51.202;8.698;2023-12-14T03:35:21;9.07;;;6.00;;
4812;SDS011;2420;51.202;8.698;2023-12-14T03:37:47;9.23;;;6.05;;
4812;SDS011;2420;51.202;8.698;2023-12-14T03:40:12;8.93;;;5.72;;
4812;SDS011;2420;51.202;8.698;2023-12-14T03:42:38;8.73;;;5.53;;
4812;SDS011;2420;51.202;8.698;2023-12-14T03:45:03;9.25;;;5.47;;
4812;SDS011;2420;51.202;8.698;2023-12-14T03:47:29;7.63;;;4.95;;
4812;SDS011;2420;51.202;8.698;2023-12-14T03:49:55;8.65;;;5.30;;
4812;SDS011;2420;51.202;8.698;2023-12-14T03:52:21;10.40;;;6.00;;
4812;SDS011;2420;51.202;8.698;2023-12-14T03:54:47;10.05;;;5.65;;
4812;SDS011;2420;51.202;8.698;2023-12-14T03:57:12;9.10;;;4.70;;
4812;SDS011;2420;51.202;8.698;2023-12-14T03:59:38;6.72;;;3.63;;
4812;SDS011;2420;51.202;8.698;2023-12-14T04:02:05;4.38;;;2.60;;
4812;SDS011;2420;51.202;8.698;2023-12-14T04:04:30;3.15;;;2.33;;
4812;SDS011;2420;51.202;8.698;2023-12-14T04:06:56;3.95;;;2.03;;
4812;SDS011;2420;51.202;8.698;2023-12-14T04:09:21;2.88;;;2.00;;
4812;SDS011;2420;51.202;8.698;2023-12-14T04:11:47;2.55;;;2.00;;
4812;SDS011;2420;51.202;8.698;2023-12-14T04:14:12;3.83;;;2.05;;
4812;SDS011;2420;51.202;8.698;2023-12-14T04:16:38;2.90;;;2.08;;
4812;SDS011;2420;51.202;8.698;2023-12-14T04:19:03;4.00;;;2.42;;
4812;SDS011;2420;51.202;8.698;2023-12-14T04:21:34;3.45;;;2.05;;
4812;SDS011;2420;51.202;8.698;2023-12-14T04:24:00;3.58;;;2.15;;
4812;SDS011;2420;51.202;8.698;2023-12-14T04:26:26;4.50;;;2.00;;
4812;SDS011;2420;51.202;8.698;2023-12-14T04:28:53;2.65;;;1.98;;
4812;SDS011;2420;51.202;8.698;2023-12-14T04:31:18;3.72;;;1.80;;
4812;SDS011;2420;51.202;8.698;2023-12-14T04:33:44;3.38;;;2.03;;
4812;SDS011;2420;51.202;8.698;2023-12-14T04:36:09;4.82;;;1.90;;
4812;SDS011;2420;51.202;8.698;2023-12-14T04:38:35;2.63;;;1.70;;
4812;SDS011;2420;51.202;8.698;2023-12-14T04:41:00;3.03;;;1.67;;
4812;SDS011;2420;51.202;8.698;2023-12-14T04:43:26;2.92;;;2.00;;
4812;SDS011;2420;51.202;8.698;2023-12-14T04:45:54;2.92;;;1.80;;
4812;SDS011;2420;51.202;8.698;2023-12-14T04:48:20;3.03;;;1.80;;
4812;SDS011;2420;51.202;8.698;2023-12-14T04:50:45;2.50;;;1.65;;
4812;SDS011;2420;51.202;8.698;2023-12-14T04:53:11;3.63;;;2.10;;
4812;SDS011;2420;51.202;8.698;2023-12-14T04:55:36;2.65;;;1.90;;
4812;SDS011;2420;51.202;8.698;2023-12-14T04:58:02;2.78;;;1.90;;
4812;SDS011;2420;51.202;8.698;2023-12-14T05:00:27;2.90;;;2.10;;
4812;SDS011;2420;51.202;8.698;2023-12-14T05:02:53;3.22;;;1.70;;
4812;SDS011;2420;51.202;8.698;2023-12-14T05:05:18;4.07;;;2.13;;
4812;SDS011;2420;51.202;8.698;2023-12-14T05:07:44;4.72;;;2.08;;
4812;SDS011;2420;51.202;8.698;2023-12-14T05:10:09;2.42;;;1.73;;
4812;SDS011;2420;51.202;8.698;2023-12-14T05:12:35;3.45;;;2.20;;
4812;SDS011;2420;51.202;8.698;2023-12-14T05:15:01;2.60;;;2.10;;
4812;SDS011;2420;51.202;8.698;2023-12-14T05:17:27;2.13;;;1.85;;
4812;SDS011;2420;51.202;8.698;2023-12-14T05:19:53;3.38;;;2.00;;
4812;SDS011;2420;51.202;8.698;2023-12-14T05:22:18;2.42;;;1.60;;
4812;SDS011;2420;51.202;8.698;2023-12-14T05:24:46;2.38;;;1.52;;
4812;SDS011;2420;51.202;8.698;2023-12-14T05:27:12;3.05;;;1.80;;
4812;SDS011;2420;51.202;8.698;2023-12-14T05:29:37;2.42;;;1.67;;
4812;SDS011;2420;51.202;8.698;2023-12-14T05:32:03;3.22;;;1.80;;
4812;SDS011;2420;51.202;8.698;2023-12-14T05:34:29;3.67;;;1.73;;
4812;SDS011;2420;51.202;8.698;2023-12-14T05:36:54;2.30;;;1.58;;
4812;SDS011;2420;51.202;8.698;2023-12-14T05:39:20;2.15;;;1.50;;
4812;SDS011;2420;51.202;8.698;2023-12-14T05:41:45;3.15;;;1.77;;
4812;SDS011;2420;51.202;8.698;2023-12-14T05:44:11;2.65;;;1.60;;
4812;SDS011;2420;51.202;8.698;2023-12-14T05:46:36;2.25;;;1.50;;
4812;SDS011;2420;51.202;8.698;2023-12-14T05:49:02;2.85;;;1.73;;
4812;SDS011;2420;51.202;8.698;2023-12-14T05:51:28;2.13;;;1.35;;
4812;SDS011;2420;51.202;8.698;2023-12-14T05:53:55;2.13;;;1.60;;
4812;SDS011;2420;51.202;8.698;2023-12-14T05:56:20;3.20;;;1.73;;
4812;SDS011;2420;51.202;8.698;2023-12-14T05:58:46;2.30;;;1.60;;
4812;SDS011;2420;51.202;8.698;2023-12-14T06:01:11;2.75;;;1.67;;
4812;SDS011;2420;51.202;8.698;2023-12-14T06:03:38;2.70;;;1.70;;
4812;SDS011;2420;51.202;8.698;2023-12-14T06:06:04;2.58;;;1.90;;
4812;SDS011;2420;51.202;8.698;2023-12-14T06:08:30;2.15;;;1.70;;
4812;SDS011;2420;51.202;8.698;2023-12-14T06:10:55;2.92;;;1.80;;
4812;SDS011;2420;51.202;8.698;2023-12-14T06:13:21;2.38;;;1.77;;
4812;SDS011;2420;51.202;8.698;2023-12-14T06:15:46;3.60;;;1.98;;
4812;SDS011;2420;51.202;8.698;2023-12-14T06:18:12;4.75;;;2.80;;
4812;SDS011;2420;51.202;8.698;2023-12-14T06:20:38;3.00;;;1.80;;
4812;SDS011;2420;51.202;8.698;2023-12-14T06:23:05;2.42;;;1.60;;
4812;SDS011;2420;51.202;8.698;2023-12-14T06:25:31;3.00;;;1.90;;
4812;SDS011;2420;51.202;8.698;2023-12-14T06:27:56;3.08;;;1.95;;
4812;SDS011;2420;51.202;8.698;2023-12-14T06:30:22;2.28;;;1.70;;
4812;SDS011;2420;51.202;8.698;2023-12-14T06:32:48;2.45;;;1.33;;
4812;SDS011;2420;51.202;8.698;2023-12-14T06:35:14;2.60;;;1.88;;
4812;SDS011;2420;51.202;8.698;2023-12-14T06:37:40;4.03;;;1.90;;
4812;SDS011;2420;51.202;8.698;2023-12-14T06:40:07;9.00;;;2.05;;
4812;SDS011;2420;51.202;8.698;2023-12-14T06:42:33;4.95;;;2.05;;
4812;SDS011;2420;51.202;8.698;2023-12-14T06:45:00;3.60;;;1.90;;
4812;SDS011;2420;51.202;8.698;2023-12-14T06:47:27;4.72;;;1.85;;
4812;SDS011;2420;51.202;8.698;2023-12-14T06:49:53;3.17;;;1.73;;
4812;SDS011;2420;51.202;8.698;2023-12-14T06:52:18;5.43;;;2.47;;
4812;SDS011;2420;51.202;8.698;2023-12-14T06:54:44;5.82;;;2.78;;
4812;SDS011;2420;51.202;8.698;2023-12-14T06:57:09;6.93;;;2.53;;
4812;SDS011;2420;51.202;8.698;2023-12-14T06:59:35;3.60;;;2.03;;
4812;SDS011;2420;51.202;8.698;2023-12-14T07:02:00;4.55;;;2.20;;
4812;SDS011;2420;51.202;8.698;2023-12-14T07:04:26;5.13;;;2.67;;
4812;SDS011;2420;51.202;8.698;2023-12-14T07:06:53;3.05;;;2.00;;
4812;SDS011;2420;51.202;8.698;2023-12-14T07:09:18;6.47;;;2.38;;
4812;SDS011;2420;51.202;8.698;2023-12-14T07:11:44;6.30;;;3.45;;
4812;SDS011;2420;51.202;8.698;2023-12-14T07:14:10;8.52;;;3.05;;
4812;SDS011;2420;51.202;8.698;2023-12-14T07:16:35;5.50;;;3.00;;
4812;SDS011;2420;51.202;8.698;2023-12-14T07:19:01;6.57;;;3.45;;
4812;SDS011;2420;51.202;8.698;2023-12-14T07:21:27;13.93;;;6.63;;
4812;SDS011;2420;51.202;8.698;2023-12-14T07:23:52;7.47;;;4.88;;
4812;SDS011;2420;51.202;8.698;2023-12-14T07:26:18;7.38;;;4.57;;
4812;SDS011;2420;51.202;8.698;2023-12-14T07:28:43;4.60;;;3.40;;
4812;SDS011;2420;51.202;8.698;2023-12-14T07:31:09;3.75;;;3.20;;
4812;SDS011;2420;51.202;8.698;2023-12-14T07:33:34;3.00;;;2.17;;
4812;SDS011;2420;51.202;8.698;2023-12-14T07:36:00;3.78;;;2.20;;
4812;SDS011;2420;51.202;8.698;2023-12-14T07:38:26;2.80;;;2.10;;
4812;SDS011;2420;51.202;8.698;2023-12-14T07:40:52;2.28;;;1.77;;
4812;SDS011;2420;51.202;8.698;2023-12-14T07:43:17;3.10;;;1.27;;
4812;SDS011;2420;51.202;8.698;2023-12-14T07:45:43;2.33;;;1.38;;
4812;SDS011;2420;51.202;8.698;2023-12-14T07:48:09;1.85;;;1.50;;
4812;SDS011;2420;51.202;8.698;2023-12-14T07:50:34;2.25;;;1.40;;
4812;SDS011;2420;51.202;8.698;2023-12-14T07:53:00;1.60;;;1.33;;
4812;SDS011;2420;51.202;8.698;2023-12-14T07:55:25;2.20;;;1.75;;
4812;SDS011;2420;51.202;8.698;2023-12-14T07:57:51;3.05;;;2.17;;
4812;SDS011;2420;51.202;8.698;2023-12-14T08:00:17;3.83;;;1.85;;
4812;SDS011;2420;51.202;8.698;2023-12-14T08:02:43;2.50;;;1.65;;
4812;SDS011;2420;51.202;8.698;2023-12-14T08:05:08;2.35;;;1.42;;
4812;SDS011;2420;51.202;8.698;2023-12-14T08:07:34;1.75;;;1.40;;
4812;SDS011;2420;51.202;8.698;2023-12-14T08:10:00;2.05;;;1.60;;
4812;SDS011;2420;51.202;8.698;2023-12-14T08:12:27;2.10;;;1.50;;
4812;SDS011;2420;51.202;8.698;2023-12-14T08:14:52;2.20;;;1.45;;
4812;SDS011;2420;51.202;8.698;2023-12-14T08:17:19;2.08;;;1.50;;
4812;SDS011;2420;51.202;8.698;2023-12-14T08:19:45;2.45;;;1.63;;
4812;SDS011;2420;51.202;8.698;2023-12-14T08:22:10;3.20;;;1.60;;
4812;SDS011;2420;51.202;8.698;2023-12-14T08:24:37;2.13;;;1.52;;
4812;SDS011;2420;51.202;8.698;2023-12-14T08:27:03;2.22;;;1.60;;
4812;SDS011;2420;51.202;8.698;2023-12-14T08:29:29;2.83;;;2.00;;
4812;SDS011;2420;51.202;8.698;2023-12-14T08:31:55;4.90;;;3.25;;
4812;SDS011;2420;51.202;8.698;2023-12-14T08:34:24;3.22;;;2.50;;
4812;SDS011;2420;51.202;8.698;2023-12-14T08:36:51;4.00;;;2.92;;
4812;SDS011;2420;51.202;8.698;2023-12-14T08:39:17;7.28;;;3.65;;
4812;SDS011;2420;51.202;8.698;2023-12-14T08:41:42;3.75;;;2.63;;
4812;SDS011;2420;51.202;8.698;2023-12-14T08:44:10;3.80;;;1.80;;
4812;SDS011;2420;51.202;8.698;2023-12-14T08:46:42;2.22;;;1.73;;
4812;SDS011;2420;51.202;8.698;2023-12-14T08:49:12;2.25;;;1.77;;
4812;SDS011;2420;51.202;8.698;2023-12-14T08:51:38;2.13;;;1.60;;
4812;SDS011;2420;51.202;8.698;2023-12-14T08:54:05;3.22;;;1.60;;
4812;SDS011;2420;51.202;8.698;2023-12-14T08:56:31;3.70;;;1.90;;
4812;SDS011;2420;51.202;8.698;2023-12-14T08:58:57;2.28;;;1.70;;
4812;SDS011;2420;51.202;8.698;2023-12-14T09:01:24;2.63;;;1.83;;
4812;SDS011;2420;51.202;8.698;2023-12-14T09:03:50;3.80;;;2.25;;
4812;SDS011;2420;51.202;8.698;2023-12-14T09:06:16;3.30;;;2.30;;
4812;SDS011;2420;51.202;8.698;2023-12-14T09:08:42;3.40;;;2.10;;
4812;SDS011;2420;51.202;8.698;2023-12-14T09:11:09;3.42;;;2.10;;
4812;SDS011;2420;51.202;8.698;2023-12-14T09:13:34;3.03;;;2.00;;
4812;SDS011;2420;51.202;8.698;2023-12-14T09:16:00;4.00;;;2.17;;
4812;SDS011;2420;51.202;8.698;2023-12-14T09:18:25;3.30;;;2.08;;
4812;SDS011;2420;51.202;8.698;2023-12-14T09:20:51;4.25;;;2.60;;
4812;SDS011;2420;51.202;8.698;2023-12-14T09:23:16;5.10;;;2.80;;
4812;SDS011;2420;51.202;8.698;2023-12-14T09:25:43;3.72;;;2.28;;
4812;SDS011;2420;51.202;8.698;2023-12-14T09:28:12;4.28;;;2.63;;
4812;SDS011;2420;51.202;8.698;2023-12-14T09:30:38;15.50;;;8.48;;
4812;SDS011;2420;51.202;8.698;2023-12-14T09:33:03;9.05;;;4.60;;
4812;SDS011;2420;51.202;8.698;2023-12-14T09:35:29;5.03;;;2.92;;
4812;SDS011;2420;51.202;8.698;2023-12-14T09:37:55;5.60;;;3.10;;
4812;SDS011;2420;51.202;8.698;2023-12-14T09:40:21;5.28;;;3.00;;
4812;SDS011;2420;51.202;8.698;2023-12-14T09:42:47;4.55;;;2.88;;
4812;SDS011;2420;51.202;8.698;2023-12-14T09:45:13;4.82;;;3.13;;
4812;SDS011;2420;51.202;8.698;2023-12-14T09:47:41;6.05;;;3.40;;
4812;SDS011;2420;51.202;8.698;2023-12-14T09:50:07;4.78;;;2.90;;
4812;SDS011;2420;51.202;8.698;2023-12-14T09:52:33;4.25;;;2.75;;
4812;SDS011;2420;51.202;8.698;2023-12-14T09:54:58;5.53;;;3.13;;
4812;SDS011;2420;51.202;8.698;2023-12-14T09:57:24;5.05;;;3.00;;
4812;SDS011;2420;51.202;8.698;2023-12-14T09:59:52;4.63;;;2.75;;
4812;SDS011;2420;51.202;8.698;2023-12-14T10:02:18;5.30;;;3.03;;
4812;SDS011;2420;51.202;8.698;2023-12-14T10:04:43;4.10;;;2.60;;
4812;SDS011;2420;51.202;8.698;2023-12-14T10:07:09;5.55;;;3.30;;
4812;SDS011;2420;51.202;8.698;2023-12-14T10:09:36;5.65;;;3.10;;
4812;SDS011;2420;51.202;8.698;2023-12-14T10:12:06;4.45;;;2.70;;
4812;SDS011;2420;51.202;8.698;2023-12-14T10:14:33;5.00;;;2.80;;
4812;SDS011;2420;51.202;8.698;2023-12-14T10:17:13;3.95;;;2.58;;
4812;SDS011;2420;51.202;8.698;2023-12-14T10:19:43;4.45;;;3.05;;
4812;SDS011;2420;51.202;8.698;2023-12-14T10:22:09;5.28;;;2.90;;
4812;SDS011;2420;51.202;8.698;2023-12-14T10:24:35;4.00;;;2.60;;
4812;SDS011;2420;51.202;8.698;2023-12-14T10:27:04;5.28;;;3.17;;
4812;SDS011;2420;51.202;8.698;2023-12-14T10:29:32;4.03;;;2.53;;
4812;SDS011;2420;51.202;8.698;2023-12-14T10:32:03;4.13;;;2.70;;
4812;SDS011;2420;51.202;8.698;2023-12-14T10:34:31;3.85;;;2.53;;
4812;SDS011;2420;51.202;8.698;2023-12-14T10:36:57;13.00;;;8.40;;
4812;SDS011;2420;51.202;8.698;2023-12-14T10:39:24;10.77;;;7.30;;
4812;SDS011;2420;51.202;8.698;2023-12-14T10:41:51;13.70;;;8.35;;
4812;SDS011;2420;51.202;8.698;2023-12-14T10:44:19;13.15;;;9.07;;
4812;SDS011;2420;51.202;8.698;2023-12-14T10:46:48;8.13;;;4.78;;
4812;SDS011;2420;51.202;8.698;2023-12-14T10:49:13;4.50;;;3.30;;
4812;SDS011;2420;51.202;8.698;2023-12-14T10:51:40;4.03;;;2.85;;
4812;SDS011;2420;51.202;8.698;2023-12-14T10:54:07;2.75;;;2.00;;
4812;SDS011;2420;51.202;8.698;2023-12-14T10:56:34;3.15;;;2.20;;
4812;SDS011;2420;51.202;8.698;2023-12-14T10:58:59;3.38;;;2.45;;
4812;SDS011;2420;51.202;8.698;2023-12-14T11:01:28;3.63;;;2.75;;
4812;SDS011;2420;51.202;8.698;2023-12-14T11:03:55;4.25;;;3.25;;
4812;SDS011;2420;51.202;8.698;2023-12-14T11:06:27;3.70;;;2.67;;
4812;SDS011;2420;51.202;8.698;2023-12-14T11:08:56;3.15;;;2.20;;
4812;SDS011;2420;51.202;8.698;2023-12-14T11:11:30;4.47;;;3.25;;
4812;SDS011;2420;51.202;8.698;2023-12-14T11:14:12;8.43;;;5.20;;
4812;SDS011;2420;51.202;8.698;2023-12-14T11:16:38;5.47;;;3.75;;
4812;SDS011;2420;51.202;8.698;2023-12-14T11:22:03;4.22;;;2.90;;
4812;SDS011;2420;51.202;8.698;2023-12-14T11:24:45;6.05;;;3.50;;
4812;SDS011;2420;51.202;8.698;2023-12-14T11:27:16;5.00;;;3.38;;
4812;SDS011;2420;51.202;8.698;2023-12-14T11:29:54;4.55;;;3.20;;
4812;SDS011;2420;51.202;8.698;2023-12-14T11:32:20;6.20;;;3.20;;
4812;SDS011;2420;51.202;8.698;2023-12-14T11:34:46;5.63;;;3.60;;
4812;SDS011;2420;51.202;8.698;2023-12-14T11:37:12;9.50;;;5.50;;
4812;SDS011;2420;51.202;8.698;2023-12-14T11:39:38;11.32;;;6.15;;
4812;SDS011;2420;51.202;8.698;2023-12-14T11:42:05;8.27;;;4.82;;
4812;SDS011;2420;51.202;8.698;2023-12-14T11:44:35;8.10;;;5.20;;
4812;SDS011;2420;51.202;8.698;2023-12-14T11:47:02;4.28;;;3.10;;
4812;SDS011;2420;51.202;8.698;2023-12-14T11:49:27;4.45;;;2.90;;
4812;SDS011;2420;51.202;8.698;2023-12-14T11:51:56;7.20;;;4.10;;
4812;SDS011;2420;51.202;8.698;2023-12-14T11:54:22;11.45;;;5.40;;
4812;SDS011;2420;51.202;8.698;2023-12-14T11:56:48;9.65;;;4.55;;
4812;SDS011;2420;51.202;8.698;2023-12-14T11:59:18;8.15;;;5.22;;
4812;SDS011;2420;51.202;8.698;2023-12-14T12:02:00;9.43;;;5.28;;
4812;SDS011;2420;51.202;8.698;2023-12-14T12:04:26;11.07;;;5.95;;
4812;SDS011;2420;51.202;8.698;2023-12-14T12:07:03;6.60;;;3.83;;
4812;SDS011;2420;51.202;8.698;2023-12-14T12:09:48;6.57;;;4.35;;
4812;SDS011;2420;51.202;8.698;2023-12-14T12:12:14;21.30;;;9.45;;
4812;SDS011;2420;51.202;8.698;2023-12-14T12:14:40;37.63;;;17.60;;
4812;SDS011;2420;51.202;8.698;2023-12-14T12:17:06;42.42;;;19.05;;
4812;SDS011;2420;51.202;8.698;2023-12-14T12:19:33;31.83;;;15.85;;
4812;SDS011;2420;51.202;8.698;2023-12-14T12:21:59;20.55;;;9.35;;
4812;SDS011;2420;51.202;8.698;2023-12-14T12:24:25;19.50;;;10.93;;
4812;SDS011;2420;51.202;8.698;2023-12-14T12:26:50;9.80;;;6.00;;
4812;SDS011;2420;51.202;8.698;2023-12-14T12:29:16;12.82;;;8.00;;
4812;SDS011;2420;51.202;8.698;2023-12-14T12:31:41;6.60;;;4.43;;
4812;SDS011;2420;51.202;8.698;2023-12-14T12:34:07;7.70;;;4.68;;
4812;SDS011;2420;51.202;8.698;2023-12-14T12:36:33;9.73;;;5.68;;
4812;SDS011;2420;51.202;8.698;2023-12-14T12:38:59;11.18;;;5.50;;
4812;SDS011;2420;51.202;8.698;2023-12-14T12:41:25;7.97;;;5.20;;
4812;SDS011;2420;51.202;8.698;2023-12-14T12:43:50;9.57;;;5.63;;
4812;SDS011;2420;51.202;8.698;2023-12-14T12:46:16;10.55;;;5.07;;
4812;SDS011;2420;51.202;8.698;2023-12-14T12:48:41;9.52;;;5.40;;
4812;SDS011;2420;51.202;8.698;2023-12-14T12:51:06;8.35;;;5.18;;
4812;SDS011;2420;51.202;8.698;2023-12-14T12:53:32;8.02;;;5.25;;
4812;SDS011;2420;51.202;8.698;2023-12-14T12:55:58;9.10;;;5.38;;
4812;SDS011;2420;51.202;8.698;2023-12-14T12:58:24;9.75;;;5.47;;
4812;SDS011;2420;51.202;8.698;2023-12-14T13:00:49;8.52;;;5.30;;
4812;SDS011;2420;51.202;8.698;2023-12-14T13:03:15;9.30;;;6.03;;
4812;SDS011;2420;51.202;8.698;2023-12-14T13:05:40;9.38;;;5.50;;
4812;SDS011;2420;51.202;8.698;2023-12-14T13:08:07;8.10;;;5.18;;
4812;SDS011;2420;51.202;8.698;2023-12-14T13:10:32;11.15;;;5.65;;
4812;SDS011;2420;51.202;8.698;2023-12-14T13:12:58;8.63;;;4.97;;
4812;SDS011;2420;51.202;8.698;2023-12-14T13:15:24;7.82;;;4.80;;
4812;SDS011;2420;51.202;8.698;2023-12-14T13:17:50;8.10;;;5.00;;
4812;SDS011;2420;51.202;8.698;2023-12-14T13:20:16;8.85;;;5.95;;
4812;SDS011;2420;51.202;8.698;2023-12-14T13:22:43;8.80;;;5.07;;
4812;SDS011;2420;51.202;8.698;2023-12-14T13:25:08;8.50;;;5.45;;
4812;SDS011;2420;51.202;8.698;2023-12-14T13:27:34;10.73;;;5.97;;
4812;SDS011;2420;51.202;8.698;2023-12-14T13:30:01;9.32;;;5.88;;
4812;SDS011;2420;51.202;8.698;2023-12-14T13:32:27;10.15;;;5.75;;
4812;SDS011;2420;51.202;8.698;2023-12-14T13:34:53;8.07;;;4.88;;
4812;SDS011;2420;51.202;8.698;2023-12-14T13:37:18;9.63;;;4.85;;
4812;SDS011;2420;51.202;8.698;2023-12-14T13:39:44;8.57;;;5.38;;
4812;SDS011;2420;51.202;8.698;2023-12-14T13:42:10;7.95;;;4.78;;
4812;SDS011;2420;51.202;8.698;2023-12-14T13:44:35;8.38;;;5.00;;
4812;SDS011;2420;51.202;8.698;2023-12-14T13:47:02;9.57;;;5.47;;
4812;SDS011;2420;51.202;8.698;2023-12-14T13:49:28;10.30;;;5.13;;
4812;SDS011;2420;51.202;8.698;2023-12-14T13:51:54;9.60;;;5.35;;
4812;SDS011;2420;51.202;8.698;2023-12-14T13:54:19;10.57;;;6.03;;
4812;SDS011;2420;51.202;8.698;2023-12-14T13:56:45;15.45;;;8.88;;
4812;SDS011;2420;51.202;8.698;2023-12-14T13:59:10;12.18;;;6.80;;
4812;SDS011;2420;51.202;8.698;2023-12-14T14:01:36;12.93;;;7.25;;
4812;SDS011;2420;51.202;8.698;2023-12-14T14:04:02;18.33;;;10.95;;
4812;SDS011;2420;51.202;8.698;2023-12-14T14:06:28;12.40;;;7.53;;
4812;SDS011;2420;51.202;8.698;2023-12-14T14:08:54;9.50;;;5.93;;
4812;SDS011;2420;51.202;8.698;2023-12-14T14:11:20;7.90;;;5.50;;
4812;SDS011;2420;51.202;8.698;2023-12-14T14:13:46;10.02;;;5.75;;
4812;SDS011;2420;51.202;8.698;2023-12-14T14:16:11;9.52;;;5.93;;
4812;SDS011;2420;51.202;8.698;2023-12-14T14:18:37;8.60;;;5.18;;
4812;SDS011;2420;51.202;8.698;2023-12-14T14:21:03;10.05;;;5.60;;
4812;SDS011;2420;51.202;8.698;2023-12-14T14:23:32;10.75;;;5.97;;
4812;SDS011;2420;51.202;8.698;2023-12-14T14:25:58;9.20;;;5.47;;
4812;SDS011;2420;51.202;8.698;2023-12-14T14:28:23;9.30;;;5.75;;
4812;SDS011;2420;51.202;8.698;2023-12-14T14:30:49;9.43;;;6.05;;
4812;SDS011;2420;51.202;8.698;2023-12-14T14:33:15;9.63;;;5.75;;
4812;SDS011;2420;51.202;8.698;2023-12-14T14:35:44;9.50;;;5.75;;
4812;SDS011;2420;51.202;8.698;2023-12-14T14:38:14;9.77;;;5.60;;
4812;SDS011;2420;51.202;8.698;2023-12-14T14:40:39;8.77;;;5.30;;
4812;SDS011;2420;51.202;8.698;2023-12-14T14:43:07;9.63;;;5.45;;
4812;SDS011;2420;51.202;8.698;2023-12-14T14:45:33;8.75;;;5.57;;
4812;SDS011;2420;51.202;8.698;2023-12-14T14:47:58;9.05;;;5.50;;
4812;SDS011;2420;51.202;8.698;2023-12-14T14:50:24;9.55;;;5.43;;
4812;SDS011;2420;51.202;8.698;2023-12-14T14:52:49;14.75;;;8.48;;
4812;SDS011;2420;51.202;8.698;2023-12-14T14:55:15;25.70;;;12.23;;
4812;SDS011;2420;51.202;8.698;2023-12-14T14:57:41;19.58;;;9.15;;
4812;SDS011;2420;51.202;8.698;2023-12-14T15:00:06;9.88;;;6.07;;
4812;SDS011;2420;51.202;8.698;2023-12-14T15:02:33;15.38;;;8.27;;
4812;SDS011;2420;51.202;8.698;2023-12-14T15:04:58;13.07;;;6.95;;
4812;SDS011;2420;51.202;8.698;2023-12-14T15:07:24;9.60;;;5.50;;
4812;SDS011;2420;51.202;8.698;2023-12-14T15:09:50;10.98;;;6.60;;